Airfield :
LOGIN :

Register | Disclaimer

   EN    FR    IT 

 










Legend :    VFR   Marginal VFR   IFR   Intensive IFR   Very Intensive IFR
Visi :
Ceiling :
>= 8 km
>= 3000ft
5 to 8 km
1000 to 3000 ft
1500m to 5 km
500 to 1000 ft
800 to 1500m
200 to 500 ft
< 800m
< 200 ft
Symbols :   Thunderstorms  Fog  Heavy snow  Heavy precipitations  Wind > 20 kt
SIGMETs :     Misc.  Thunderstorms  Icing  Turbulence  Mountain Waves  Volcanic Ashes







- Airport Elevation : 194 ft
- IATA code : LME
- Download approach charts


LFRM - Le Mans

CURRENT METAR :
  • 200830Z AUTO 28004KT 210V020 9999 BKN016 17/12 Q1016 NOSIG

EXPIRED METARs :
  • 200800Z AUTO 27005KT 220V340 9999 BKN016 BKN021 16/12 Q1016 NOSIG
  • 200730Z AUTO 28005KT 230V350 9999 FEW010 OVC017 15/12 Q1016 NOSIG
  • 200700Z AUTO 26005KT 230V340 9999 BKN010 BKN016 OVC021 15/12 Q1016 BECMG SCT020 BKN060
  • 200630Z AUTO 27005KT 230V320 9999 BKN008 BKN020 OVC062 15/13 Q1015 BECMG SCT020 BKN060
  • 200600Z AUTO 27005KT 240V300 9999 BKN007 OVC060 14/13 Q1015 BECMG SCT020 BKN060

TAF AMD TAF LFRM
Valid from the 20 at 07:00 until the 21 at 06:00 UTC


200730Z 2007/2106 26006KT 9999 BKN010 BKN060
BECMG 2007/2009 SCT020
BECMG 2018/2020 34005KT CAVOK
No reported NOTAMs for that airfield.



MET'MAP, your aeronautical weather chart ! - Copyright ORBIFLY December 2007 - Disclaimer

ORBIFLY MET'MAP TEAM :

Programming & Development : Alexandra Zaïnal
Concept & Development : Baudouin d'Aumeries
Co-Development & Prog : Marc-Olivier Méhu
Technical & hardware support : Manuel Goepfert

Contact : metmap@orbifly.com




SOURCES & CREDITS :

   NOAA